Time;durP1;ratioP1;P1;durP2;ratioP2;P2;SDS_P1;SDS_P2;PMS_P1;PMS_P2;Temp;Humidity;BMP_temperature;BMP_pressure;BME280_temperature;BME280_humidity;BME280_pressure;Samples;Min_cycle;Max_cycle;Signal;HPM_P1;HPM_P2
2022/03/04 00:01:19;;;;;;;49.97;24.95;;;;;;;3.24;57.84;100072.59;5113804;28;20130;-72
2022/03/04 00:03:49;;;;;;;50.17;25.98;;;;;;;3.12;58.57;100073.00;5113628;28;20442;-73
2022/03/04 00:06:17;;;;;;;50.63;25.92;;;;;;;3.26;58.84;100070.75;5114003;28;20088;-73
2022/03/04 00:08:45;;;;;;;51.85;27.08;;;;;;;3.14;59.26;100065.91;5113274;28;20513;-75
2022/03/04 00:11:14;;;;;;;58.72;27.58;;;;;;;3.16;59.23;100066.72;5113948;28;20039;-75
2022/03/04 00:13:42;;;;;;;54.72;28.13;;;;;;;3.12;59.66;100068.59;5113629;28;20063;-75
2022/03/04 00:16:10;;;;;;;56.17;28.38;;;;;;;3.01;60.31;100070.72;5113899;28;20104;-76
2022/03/04 00:18:39;;;;;;;53.42;27.60;;;;;;;3.03;60.58;100075.94;5113351;28;20052;-76
2022/03/04 00:21:10;;;;;;;51.53;26.25;;;;;;;3.27;59.82;100075.13;5113572;28;20420;-77
2022/03/04 00:23:38;;;;;;;51.83;26.90;;;;;;;3.13;60.31;100074.72;5113253;28;20061;-76
2022/03/04 00:26:07;;;;;;;52.05;26.65;;;;;;;3.15;60.59;100072.91;5113421;28;20096;-76
2022/03/04 00:28:35;;;;;;;56.30;28.05;;;;;;;3.17;60.61;100069.28;5113351;28;20089;-76
2022/03/04 00:31:04;;;;;;;52.45;27.35;;;;;;;3.24;60.17;100071.72;5113649;28;20040;-75
2022/03/04 00:33:33;;;;;;;54.28;27.67;;;;;;;3.28;60.06;100071.59;5112922;28;20047;-80
2022/03/04 00:36:01;;;;;;;52.95;28.10;;;;;;;3.22;59.86;100073.56;5113641;28;20043;-74
2022/03/04 00:38:31;;;;;;;54.40;27.08;;;;;;;3.23;60.44;100065.59;5113602;28;20043;-74
2022/03/04 00:41:00;;;;;;;53.75;26.80;;;;;;;3.24;59.64;100067.31;5113542;28;20047;-74
2022/03/04 00:43:28;;;;;;;59.45;27.63;;;;;;;3.17;60.20;100071.06;5112941;28;20067;-74
2022/03/04 00:45:56;;;;;;;57.95;27.52;;;;;;;3.04;60.28;100072.38;5112925;28;20458;-74
2022/03/04 00:48:24;;;;;;;53.85;29.10;;;;;;;2.96;60.42;100067.34;5113134;28;20071;-74
2022/03/04 00:50:53;;;;;;;53.25;26.63;;;;;;;3.06;59.74;100067.91;5112990;28;20282;-74
2022/03/04 00:53:21;;;;;;;51.63;28.05;;;;;;;2.96;59.68;100064.72;5113667;28;20044;-74
2022/03/04 00:55:51;;;;;;;57.42;28.45;;;;;;;2.93;60.35;100071.88;5113226;28;20043;-74
2022/03/04 00:58:20;;;;;;;49.22;25.55;;;;;;;3.05;59.54;100063.56;5113436;28;20476;-74
2022/03/04 01:00:49;;;;;;;48.72;25.67;;;;;;;3.03;59.93;100068.88;5112847;28;20044;-75
2022/03/04 01:03:17;;;;;;;50.03;25.75;;;;;;;2.99;59.85;100069.03;5113509;28;20036;-75
2022/03/04 01:05:46;;;;;;;53.55;26.08;;;;;;;3.13;59.04;100061.56;5113063;28;20036;-74
2022/03/04 01:08:14;;;;;;;49.30;25.02;;;;;;;3.13;58.79;100061.56;5113458;28;20065;-74
2022/03/04 01:10:43;;;;;;;45.30;24.25;;;;;;;3.09;59.12;100063.44;5112649;28;20048;-75
2022/03/04 01:13:13;;;;;;;50.67;25.75;;;;;;;3.16;59.18;100069.34;5113363;28;20118;-75
2022/03/04 01:15:42;;;;;;;52.70;26.48;;;;;;;3.07;59.59;100059.97;5112964;28;20039;-74
2022/03/04 01:18:11;;;;;;;46.65;24.67;;;;;;;2.96;60.33;100072.63;5112645;28;20071;-75
2022/03/04 01:20:39;;;;;;;48.88;24.08;;;;;;;2.98;59.87;100062.03;5113503;28;20040;-76
2022/03/04 01:23:07;;;;;;;47.67;25.48;;;;;;;3.12;59.80;100058.06;5112878;28;20135;-74
2022/03/04 01:25:36;;;;;;;48.22;25.15;;;;;;;3.09;59.66;100052.03;5113156;28;20039;-75
2022/03/04 01:28:04;;;;;;;46.45;23.60;;;;;;;3.14;60.10;100053.59;5094543;28;20450;-75
2022/03/04 01:30:34;;;;;;;48.17;24.55;;;;;;;3.02;60.83;100051.38;5113124;28;20473;-75
2022/03/04 01:33:02;;;;;;;45.85;23.52;;;;;;;3.01;61.42;100056.69;5112782;28;20044;-76
2022/03/04 01:35:31;;;;;;;41.58;23.10;;;;;;;3.29;60.16;100057.50;5113005;28;20042;-76
2022/03/04 01:37:59;;;;;;;51.28;25.08;;;;;;;2.99;61.13;100046.19;5112349;28;20048;-76
2022/03/04 01:40:27;;;;;;;53.53;24.85;;;;;;;2.97;61.22;100058.53;5113062;28;20097;-75
2022/03/04 01:42:55;;;;;;;46.95;24.30;;;;;;;2.92;61.96;100051.72;5112508;28;20070;-75
2022/03/04 01:45:24;;;;;;;46.13;23.95;;;;;;;2.93;61.84;100056.06;5112676;28;20047;-75
2022/03/04 01:47:53;;;;;;;49.58;23.45;;;;;;;2.95;61.64;100059.50;5112317;28;20042;-75
2022/03/04 01:50:23;;;;;;;42.15;21.80;;;;;;;2.90;62.28;100062.31;5113044;28;20082;-75
2022/03/04 01:52:54;;;;;;;44.45;22.73;;;;;;;2.95;61.94;100060.38;5112681;28;20054;-75
2022/03/04 01:55:23;;;;;;;35.20;18.85;;;;;;;3.11;61.51;100061.59;5115613;28;20123;-75
2022/03/04 01:57:51;;;;;;;36.30;18.77;;;;;;;3.24;61.71;100061.19;5115881;28;20568;-76
2022/03/04 02:00:19;;;;;;;33.15;17.30;;;;;;;3.23;62.04;100060.34;5116520;28;20526;-75
2022/03/04 02:02:47;;;;;;;31.33;17.42;;;;;;;3.25;62.31;100053.22;5116148;28;20382;-76
2022/03/04 02:05:19;;;;;;;34.45;18.77;;;;;;;3.22;64.31;100053.34;5116330;28;20118;-75
2022/03/04 02:07:47;;;;;;;36.45;17.90;;;;;;;3.16;64.77;100054.38;5115797;28;20476;-76
2022/03/04 02:10:16;;;;;;;35.45;18.85;;;;;;;3.15;65.97;100057.09;5116342;28;20036;-75
2022/03/04 02:12:44;;;;;;;33.50;17.80;;;;;;;3.13;67.24;100053.66;5115642;28;20441;-80
2022/03/04 02:15:12;;;;;;;34.72;17.60;;;;;;;3.07;67.61;100048.56;5115782;28;20039;-76
2022/03/04 02:17:41;;;;;;;39.38;19.42;;;;;;;3.09;69.14;100046.75;5115831;28;20046;-76
2022/03/04 02:20:10;;;;;;;33.67;17.95;;;;;;;3.05;69.93;100048.63;5115983;28;20454;-75
2022/03/04 02:22:40;;;;;;;37.17;17.73;;;;;;;3.09;70.06;100049.41;5116063;28;20043;-75
2022/03/04 02:25:09;;;;;;;35.05;19.45;;;;;;;3.00;71.18;100047.91;5115375;28;20576;-75
2022/03/04 02:27:37;;;;;;;33.97;18.23;;;;;;;2.99;71.72;100055.84;5115789;28;20044;-78
2022/03/04 02:30:06;;;;;;;38.25;19.42;;;;;;;3.03;72.17;100062.75;5115254;28;20126;-76
2022/03/04 02:32:36;;;;;;;35.08;19.00;;;;;;;2.90;73.82;100061.44;5115980;28;20042;-75
2022/03/04 02:35:05;;;;;;;36.55;18.80;;;;;;;2.86;74.77;100066.78;5115416;28;20070;-76
2022/03/04 02:37:34;;;;;;;36.75;19.27;;;;;;;2.77;75.33;100048.63;5116062;28;20043;-76
2022/03/04 02:40:05;;;;;;;35.72;20.00;;;;;;;2.83;76.02;100066.88;5115139;28;20049;-75
2022/03/04 02:42:33;;;;;;;38.65;19.75;;;;;;;2.78;76.74;100067.94;5115733;28;20043;-76
2022/03/04 02:45:04;;;;;;;38.22;20.08;;;;;;;2.79;77.55;100069.66;5115021;28;20046;-75
2022/03/04 02:47:32;;;;;;;35.60;19.25;;;;;;;2.71;78.05;100067.28;5115297;28;20063;-75
2022/03/04 02:50:01;;;;;;;37.70;19.40;;;;;;;2.59;79.63;100070.28;5114917;28;20054;-75
2022/03/04 02:52:29;;;;;;;41.78;21.48;;;;;;;2.66;78.92;100061.28;5115391;28;20040;-76
2022/03/04 02:54:57;;;;;;;38.88;20.40;;;;;;;2.63;79.34;100065.78;5114896;28;20104;-76
2022/03/04 02:57:27;;;;;;;38.10;20.70;;;;;;;2.62;79.04;100066.72;5115077;28;20419;-75
2022/03/04 02:59:55;;;;;;;37.80;19.02;;;;;;;2.54;79.70;100065.16;5114950;28;20093;-76
2022/03/04 03:02:23;;;;;;;38.15;19.60;;;;;;;2.63;80.13;100064.03;5114984;28;20050;-77
2022/03/04 03:04:52;;;;;;;36.53;20.08;;;;;;;2.58;80.23;100071.19;5114142;28;20508;-77
2022/03/04 03:07:20;;;;;;;42.15;21.25;;;;;;;2.55;80.43;100066.03;5115202;28;20050;-77
2022/03/04 03:09:50;;;;;;;37.70;20.15;;;;;;;2.44;81.28;100065.47;5114813;28;20047;-77
2022/03/04 03:12:18;;;;;;;38.63;20.15;;;;;;;2.40;82.86;100069.09;5115037;28;20126;-76
2022/03/04 03:14:58;;;;;;;37.72;19.90;;;;;;;2.38;83.55;100073.56;5114710;28;20085;-76
2022/03/04 03:17:26;;;;;;;41.30;20.35;;;;;;;2.44;82.69;100070.75;5115414;28;20074;-75
2022/03/04 03:19:54;;;;;;;38.63;21.17;;;;;;;2.49;82.05;100071.47;5114582;28;20130;-76
2022/03/04 03:22:22;;;;;;;40.42;20.83;;;;;;;2.30;84.69;100079.03;5114947;28;20046;-78
2022/03/04 03:24:51;;;;;;;37.97;20.25;;;;;;;2.41;83.16;100070.81;5114406;28;20464;-79
2022/03/04 03:27:20;;;;;;;37.42;20.00;;;;;;;2.42;83.75;100075.22;5114850;28;20032;-77
2022/03/04 03:29:48;;;;;;;40.13;20.45;;;;;;;2.35;84.03;100081.56;5114238;28;20480;-79
2022/03/04 03:32:20;;;;;;;37.22;19.88;;;;;;;2.37;84.06;100082.34;5114516;28;20485;-76
2022/03/04 03:34:48;;;;;;;37.47;20.63;;;;;;;2.37;83.82;100083.22;5114134;28;20385;-79
2022/03/04 03:37:17;;;;;;;37.10;20.60;;;;;;;2.31;84.16;100083.38;5114521;28;20035;-76
2022/03/04 03:39:45;;;;;;;37.30;20.45;;;;;;;2.37;83.67;100082.34;5114422;28;20039;-76
2022/03/04 03:42:14;;;;;;;38.28;20.90;;;;;;;2.32;84.55;100081.63;5114282;28;20046;-76
2022/03/04 03:44:42;;;;;;;35.10;20.25;;;;;;;2.32;84.12;100086.88;5114645;28;20078;-76
2022/03/04 03:47:11;;;;;;;37.60;20.77;;;;;;;2.22;84.78;100083.66;5113853;28;20053;-76
2022/03/04 03:49:43;;;;;;;38.28;20.40;;;;;;;2.43;83.56;100077.78;5114408;28;20055;-76
2022/03/04 03:52:11;;;;;;;38.65;20.00;;;;;;;2.31;83.89;100080.75;5113920;28;20131;-76
2022/03/04 03:54:39;;;;;;;38.83;20.15;;;;;;;2.23;84.74;100088.91;5113893;28;20054;-77
2022/03/04 03:57:10;;;;;;;39.15;20.75;;;;;;;2.11;86.08;100080.47;5113867;28;20040;-78
2022/03/04 03:59:39;;;;;;;37.45;20.30;;;;;;;2.10;86.22;100078.75;5114349;28;20036;-76
2022/03/04 04:02:07;;;;;;;39.38;20.40;;;;;;;1.98;87.61;100083.44;5113812;28;20042;-76
2022/03/04 04:04:35;;;;;;;40.08;20.30;;;;;;;2.06;85.76;100082.38;5114132;28;20130;-76
2022/03/04 04:07:09;;;;;;;39.15;19.98;;;;;;;2.22;83.84;100081.91;5113665;28;20051;-77
2022/03/04 04:09:38;;;;;;;36.50;20.27;;;;;;;2.14;84.75;100081.25;5113963;28;20044;-76
2022/03/04 04:12:08;;;;;;;40.10;21.27;;;;;;;2.17;84.16;100082.94;5113512;28;20447;-76
2022/03/04 04:14:36;;;;;;;38.20;20.63;;;;;;;2.15;83.23;100080.34;5114095;28;20051;-74
2022/03/04 04:17:05;;;;;;;40.60;20.25;;;;;;;2.24;81.31;100097.66;5112724;28;20067;-75
2022/03/04 04:19:33;;;;;;;38.35;20.90;;;;;;;2.29;80.52;100096.59;5113394;28;20147;-75
2022/03/04 04:22:01;;;;;;;37.42;20.10;;;;;;;2.52;77.95;100087.19;5113486;28;20050;-76
2022/03/04 04:24:31;;;;;;;39.25;20.15;;;;;;;2.55;77.45;100092.34;5113684;28;20425;-75
2022/03/04 04:26:59;;;;;;;40.17;22.23;;;;;;;2.39;78.45;100091.06;5113121;28;20036;-75
2022/03/04 04:29:27;;;;;;;35.60;20.88;;;;;;;2.38;78.60;100079.69;5113699;28;20056;-75
2022/03/04 04:31:55;;;;;;;36.08;20.00;;;;;;;2.51;77.46;100101.22;5113265;28;20112;-76
2022/03/04 04:34:24;;;;;;;42.17;21.67;;;;;;;2.51;77.63;100091.59;5095229;28;20051;-76
2022/03/04 04:36:52;;;;;;;38.90;20.02;;;;;;;2.70;75.73;100102.44;5113277;28;20509;-75
2022/03/04 04:39:20;;;;;;;34.50;19.75;;;;;;;2.51;77.50;100095.97;5113627;28;20046;-75
2022/03/04 04:41:49;;;;;;;37.33;20.10;;;;;;;2.35;80.14;100106.09;5113645;28;20055;-77
2022/03/04 04:44:18;;;;;;;35.67;19.77;;;;;;;2.34;80.83;100112.28;5113103;28;20065;-77
2022/03/04 04:46:46;;;;;;;34.85;20.10;;;;;;;2.43;80.06;100108.50;5113321;28;20063;-75
2022/03/04 04:49:15;;;;;;;36.45;19.00;;;;;;;2.59;78.23;100113.25;5113151;28;20063;-75
2022/03/04 04:51:43;;;;;;;37.38;20.90;;;;;;;2.61;78.41;100113.25;5113496;28;20445;-75
2022/03/04 04:54:11;;;;;;;41.13;20.70;;;;;;;2.62;78.60;100122.88;5112863;28;20401;-75
2022/03/04 04:56:39;;;;;;;41.30;21.92;;;;;;;2.47;79.35;100125.94;5113221;28;20135;-75
2022/03/04 04:59:10;;;;;;;40.88;20.80;;;;;;;2.55;78.59;100130.06;5113111;28;20064;-74
2022/03/04 05:01:40;;;;;;;45.28;21.58;;;;;;;2.46;79.50;100134.75;5113245;28;20122;-74
2022/03/04 05:04:09;;;;;;;39.55;20.27;;;;;;;2.58;78.45;100137.88;5112752;28;20134;-75
2022/03/04 05:06:37;;;;;;;40.28;21.27;;;;;;;2.47;79.15;100147.84;5113240;28;20039;-77
2022/03/04 05:09:05;;;;;;;36.70;19.80;;;;;;;2.58;76.93;100150.19;5113004;28;20047;-76
2022/03/04 05:11:34;;;;;;;38.53;21.58;;;;;;;2.53;77.25;100152.09;5113183;28;20381;-76
2022/03/04 05:14:02;;;;;;;38.13;21.75;;;;;;;2.33;78.98;100157.94;5112855;28;20047;-73
2022/03/04 05:16:32;;;;;;;37.80;20.13;;;;;;;2.40;77.82;100150.69;5113455;28;20058;-76
2022/03/04 05:19:01;;;;;;;38.33;21.15;;;;;;;2.58;75.96;100158.09;5112419;28;20112;-78
2022/03/04 05:21:29;;;;;;;39.40;21.08;;;;;;;2.59;75.96;100154.53;5095023;28;20056;-78
2022/03/04 05:24:00;;;;;;;37.70;20.48;;;;;;;2.66;75.49;100164.00;5112557;28;20442;-78
2022/03/04 05:26:30;;;;;;;46.78;22.75;;;;;;;2.80;74.20;100161.81;5094979;28;20553;-76
2022/03/04 05:28:59;;;;;;;39.15;21.73;;;;;;;2.82;73.63;100162.63;5115563;28;20035;-74
2022/03/04 05:31:28;;;;;;;39.97;20.00;;;;;;;2.77;72.80;100167.16;5117129;28;20039;-75
2022/03/04 05:33:58;;;;;;;38.47;19.80;;;;;;;2.78;72.72;100173.28;5116565;28;20057;-75
2022/03/04 05:36:27;;;;;;;41.83;20.45;;;;;;;2.79;71.52;100173.25;5117119;28;20564;-75
2022/03/04 05:38:55;;;;;;;40.88;21.63;;;;;;;2.71;71.49;100179.69;5116861;28;20048;-72
2022/03/04 05:41:26;;;;;;;38.42;21.00;;;;;;;2.74;70.94;100185.72;5116977;28;20035;-72
2022/03/04 05:43:55;;;;;;;41.95;21.50;;;;;;;2.71;71.73;100185.81;5116570;28;20050;-73
2022/03/04 05:46:23;;;;;;;39.15;21.90;;;;;;;2.67;72.66;100193.81;5116695;28;20081;-71
2022/03/04 05:48:51;;;;;;;39.38;21.02;;;;;;;2.67;72.93;100202.59;5116350;28;20040;-76
2022/03/04 05:51:21;;;;;;;42.15;22.25;;;;;;;2.66;74.46;100203.50;5116266;28;20071;-75
2022/03/04 05:53:52;;;;;;;44.42;24.42;;;;;;;2.50;76.36;100210.09;5116498;28;20093;-75
2022/03/04 05:56:21;;;;;;;44.03;23.08;;;;;;;2.47;77.65;100212.81;5116200;28;20036;-75
2022/03/04 05:58:50;;;;;;;50.38;23.90;;;;;;;2.51;77.96;100203.91;5116414;28;20431;-74
2022/03/04 06:01:18;;;;;;;41.78;22.77;;;;;;;2.53;78.04;100204.75;5115955;28;20097;-73
2022/03/04 06:03:47;;;;;;;46.70;25.10;;;;;;;2.61;78.05;100208.03;5116399;28;20048;-73
2022/03/04 06:06:15;;;;;;;48.00;24.20;;;;;;;2.48;78.80;100206.66;5115800;28;20507;-72
2022/03/04 06:08:45;;;;;;;45.08;22.15;;;;;;;2.56;78.51;100207.28;5116607;28;20085;-72
2022/03/04 06:11:13;;;;;;;45.28;23.27;;;;;;;2.52;79.09;100203.91;5115990;28;20088;-72
2022/03/04 06:13:42;;;;;;;46.22;22.83;;;;;;;2.59;78.58;100207.19;5116302;28;20369;-71
2022/03/04 06:16:10;;;;;;;44.38;22.80;;;;;;;2.45;79.41;100215.50;5115756;28;20087;-72
2022/03/04 06:18:38;;;;;;;42.80;23.98;;;;;;;2.64;77.98;100213.22;5115595;28;20096;-76
2022/03/04 06:21:06;;;;;;;44.30;23.30;;;;;;;2.68;78.01;100217.47;5115389;28;20097;-77
2022/03/04 06:23:35;;;;;;;39.75;22.33;;;;;;;2.62;76.87;100224.72;5116026;28;20039;-77
2022/03/04 06:26:04;;;;;;;43.85;22.73;;;;;;;2.77;75.52;100225.13;5116070;28;20044;-77
2022/03/04 06:28:32;;;;;;;46.13;24.15;;;;;;;2.77;76.68;100227.75;5116194;28;20134;-76
2022/03/04 06:31:01;;;;;;;50.40;25.10;;;;;;;2.91;76.05;100232.63;5115625;28;20044;-75
2022/03/04 06:33:35;;;;;;;44.45;23.35;;;;;;;2.87;75.96;100233.63;5097366;28;20055;-75
2022/03/04 06:36:04;;;;;;;;;;;;;;;3.02;74.83;100242.88;5115920;28;20043;-77
2022/03/04 06:38:35;;;;;;;42.15;21.55;;;;;;;3.05;74.34;100243.63;5115771;28;19920;-73
2022/03/04 06:41:06;;;;;;;48.75;22.92;;;;;;;3.01;73.96;100244.63;5114791;28;20122;-73
2022/03/04 06:43:35;;;;;;;43.65;23.90;;;;;;;3.11;73.72;100245.22;5115517;28;20054;-73
2022/03/04 06:46:03;;;;;;;48.75;24.45;;;;;;;3.15;73.42;100252.13;5115477;28;20035;-80
2022/03/04 06:48:35;;;;;;;42.47;23.00;;;;;;;3.14;73.55;100247.75;5115533;28;20043;-73
2022/03/04 06:51:05;;;;;;;40.30;22.35;;;;;;;3.15;70.75;100241.56;5115278;28;20040;-75
2022/03/04 06:53:33;;;;;;;40.40;23.08;;;;;;;3.07;71.69;100246.22;5115527;28;20459;-73
2022/03/04 06:56:02;;;;;;;46.25;24.98;;;;;;;2.95;72.23;100244.81;5115573;28;20420;-73
2022/03/04 06:58:34;;;;;;;43.08;23.95;;;;;;;2.94;72.63;100252.75;5115453;28;20491;-73
2022/03/04 07:01:04;;;;;;;46.25;24.80;;;;;;;2.87;73.54;100246.78;5115491;28;20100;-73
2022/03/04 07:03:33;;;;;;;45.40;24.45;;;;;;;2.89;74.33;100252.88;5115003;28;20126;-73
2022/03/04 07:06:01;;;;;;;49.20;24.88;;;;;;;3.02;74.19;100261.31;5114970;28;20047;-73
2022/03/04 07:08:30;;;;;;;45.08;24.13;;;;;;;3.00;74.83;100269.25;5115332;28;20043;-72
2022/03/04 07:10:59;;;;;;;45.55;23.73;;;;;;;2.95;75.54;100262.38;5115246;28;20067;-72
2022/03/04 07:13:27;;;;;;;48.53;24.55;;;;;;;3.00;76.79;100266.63;5115028;28;20043;-72
2022/03/04 07:15:57;;;;;;;44.90;24.08;;;;;;;3.16;76.26;100274.94;5115099;28;20044;-72
2022/03/04 07:18:25;;;;;;;42.40;24.70;;;;;;;3.15;76.25;100273.22;5096203;28;20048;-72
2022/03/04 07:20:53;;;;;;;47.03;24.50;;;;;;;3.24;76.86;100277.34;5115001;28;20047;-72
2022/03/04 07:23:21;;;;;;;50.08;25.40;;;;;;;3.33;76.07;100283.22;5114793;28;20533;-72
2022/03/04 07:25:50;;;;;;;52.35;26.25;;;;;;;3.44;74.85;100286.38;5114983;28;20048;-71
2022/03/04 07:28:19;;;;;;;47.70;24.67;;;;;;;3.34;75.41;100284.06;5114650;28;20130;-72
2022/03/04 07:30:47;;;;;;;43.20;23.42;;;;;;;3.14;74.80;100282.03;5114874;28;20043;-72
2022/03/04 07:33:17;;;;;;;50.22;25.27;;;;;;;3.29;75.11;100286.84;5114489;28;20043;-72
2022/03/04 07:35:45;;;;;;;47.60;24.65;;;;;;;3.51;73.69;100291.47;5097210;28;20043;-71
2022/03/04 07:38:14;;;;;;;42.13;21.73;;;;;;;3.43;73.54;100283.78;5114349;28;20135;-73
2022/03/04 07:40:44;;;;;;;41.08;22.50;;;;;;;3.39;74.07;100288.31;5114600;28;20044;-72
2022/03/04 07:43:13;;;;;;;40.95;22.70;;;;;;;3.42;73.50;100293.47;5114453;28;20397;-75
2022/03/04 07:45:41;;;;;;;42.53;22.83;;;;;;;3.63;72.63;100291.09;5114475;28;20118;-74
2022/03/04 07:48:09;;;;;;;40.10;21.48;;;;;;;3.72;72.45;100291.66;5114302;28;20044;-75
2022/03/04 07:50:39;;;;;;;39.33;21.17;;;;;;;3.87;70.97;100298.25;5096242;28;20052;-70
2022/03/04 07:53:07;;;;;;;37.25;21.77;;;;;;;4.06;70.65;100298.53;5114285;28;20067;-71
2022/03/04 07:55:36;;;;;;;36.00;18.98;;;;;;;4.16;69.34;100296.44;5113948;28;20077;-73
2022/03/04 07:58:04;;;;;;;38.85;20.65;;;;;;;4.18;69.36;100305.16;5114226;28;20036;-73
2022/03/04 08:00:32;;;;;;;40.80;20.50;;;;;;;4.17;69.17;100306.09;5114015;28;20484;-72
2022/03/04 08:03:01;;;;;;;39.35;21.25;;;;;;;4.21;68.25;100305.91;5114295;28;20042;-72
2022/03/04 08:05:30;;;;;;;38.17;21.08;;;;;;;4.27;68.41;100307.50;5113984;28;20047;-72
2022/03/04 08:08:01;;;;;;;38.17;20.88;;;;;;;4.22;68.11;100304.13;5114038;28;20048;-72
2022/03/04 08:10:30;;;;;;;41.38;21.83;;;;;;;4.15;68.22;100305.25;5113979;28;20050;-72
2022/03/04 08:12:58;;;;;;;39.67;22.17;;;;;;;4.30;68.29;100305.59;5114055;28;20039;-72
2022/03/04 08:15:26;;;;;;;38.90;22.10;;;;;;;4.38;68.32;100307.13;5113018;28;20101;-73
2022/03/04 08:17:57;;;;;;;38.05;19.92;;;;;;;4.46;66.50;100315.66;5113710;28;20067;-73
2022/03/04 08:20:26;;;;;;;37.83;20.35;;;;;;;4.43;66.21;100313.97;5113930;28;20059;-72
2022/03/04 08:22:59;;;;;;;31.65;17.90;;;;;;;4.56;65.84;100307.38;5096018;28;20401;-71
2022/03/04 08:25:27;;;;;;;32.97;17.63;;;;;;;4.68;64.09;100299.94;5113170;28;20044;-73
2022/03/04 08:27:55;;;;;;;32.10;19.17;;;;;;;4.68;64.31;100306.06;5113347;28;20044;-72
2022/03/04 08:30:24;;;;;;;32.83;18.52;;;;;;;4.79;63.37;100303.06;5095126;28;20063;-73
2022/03/04 08:32:56;;;;;;;35.03;18.25;;;;;;;4.85;63.28;100297.56;5113408;28;20039;-72
2022/03/04 08:35:25;;;;;;;35.45;19.83;;;;;;;4.99;62.50;100308.47;5113202;28;20043;-72
2022/03/04 08:37:53;;;;;;;31.25;17.83;;;;;;;5.05;61.04;100295.03;5113616;28;20046;-72
2022/03/04 08:40:23;;;;;;;36.53;19.73;;;;;;;5.07;60.74;100303.78;5113385;28;20043;-72
2022/03/04 08:42:52;;;;;;;37.00;20.95;;;;;;;5.17;59.88;100307.81;5113671;28;20035;-72
2022/03/04 08:45:20;;;;;;;38.38;21.40;;;;;;;5.15;59.25;100306.16;5113376;28;20074;-73
2022/03/04 08:47:48;;;;;;;35.97;21.58;;;;;;;5.02;59.66;100305.75;5113383;28;20498;-72
2022/03/04 08:50:17;;;;;;;38.30;21.13;;;;;;;5.14;59.04;100310.56;5095252;28;20043;-73
2022/03/04 08:52:46;;;;;;;43.90;22.27;;;;;;;5.04;58.87;100313.63;5113234;28;20040;-72
2022/03/04 08:55:15;;;;;;;43.05;22.67;;;;;;;4.88;60.37;100313.28;5113191;28;20127;-73
2022/03/04 08:57:46;;;;;;;45.25;24.20;;;;;;;4.98;62.05;100319.13;5113389;28;20084;-72
2022/03/04 09:00:17;;;;;;;44.00;23.83;;;;;;;5.06;62.65;100315.28;5113306;28;20040;-74
2022/03/04 09:02:47;;;;;;;43.40;23.17;;;;;;;5.31;63.82;100317.03;5114303;28;20043;-72
2022/03/04 09:05:17;;;;;;;47.03;25.65;;;;;;;5.38;64.30;100307.91;5117330;28;20044;-72
2022/03/04 09:07:45;;;;;;;45.28;26.95;;;;;;;5.37;64.82;100307.06;5117295;28;20046;-72
2022/03/04 09:10:14;;;;;;;48.00;26.55;;;;;;;5.34;64.69;100307.19;5117301;28;20036;-72
2022/03/04 09:12:43;;;;;;;47.45;26.45;;;;;;;5.23;65.05;100309.38;5117457;28;20039;-72
2022/03/04 09:15:12;;;;;;;43.75;23.48;;;;;;;5.15;66.11;100314.94;5117155;28;20385;-72
2022/03/04 09:17:41;;;;;;;46.08;26.70;;;;;;;5.22;65.45;100314.72;5117096;28;20114;-72
2022/03/04 09:20:12;;;;;;;52.58;27.30;;;;;;;5.19;65.99;100323.63;5117538;28;20083;-72
2022/03/04 09:22:41;;;;;;;47.35;26.73;;;;;;;5.00;67.52;100326.06;5116919;28;20062;-71
2022/03/04 09:25:10;;;;;;;47.35;25.88;;;;;;;5.11;67.18;100321.25;5117186;28;20075;-71
2022/03/04 09:27:38;;;;;;;46.45;26.52;;;;;;;5.17;66.46;100325.44;5116956;28;20439;-72
2022/03/04 09:30:08;;;;;;;45.80;24.85;;;;;;;5.12;64.92;100328.28;5116957;28;20396;-72
2022/03/04 09:32:38;;;;;;;45.38;25.08;;;;;;;5.25;64.91;100327.81;5116495;28;20082;-72
2022/03/04 09:35:07;;;;;;;46.83;26.05;;;;;;;5.25;64.85;100328.69;5098749;28;20078;-72
2022/03/04 09:37:36;;;;;;;41.78;24.73;;;;;;;5.28;64.51;100335.63;5116688;28;20044;-72
2022/03/04 09:40:08;;;;;;;44.95;24.80;;;;;;;5.37;63.19;100335.28;5116969;28;20069;-72
2022/03/04 09:42:37;;;;;;;49.42;25.08;;;;;;;5.12;63.69;100327.41;5098557;28;20047;-72
2022/03/04 09:45:06;;;;;;;40.65;24.42;;;;;;;5.40;62.94;100338.72;5116845;28;20044;-71
2022/03/04 09:47:35;;;;;;;41.40;24.77;;;;;;;5.33;63.61;100337.19;5116523;28;20048;-71
2022/03/04 09:50:07;;;;;;;45.35;24.92;;;;;;;5.30;62.94;100332.00;5116385;28;20054;-72
2022/03/04 09:52:35;;;;;;;44.50;25.95;;;;;;;5.32;63.36;100337.25;5116513;28;20047;-71
2022/03/04 09:55:05;;;;;;;49.63;24.90;;;;;;;4.96;64.11;100335.03;5116611;28;20044;-71
2022/03/04 09:57:34;;;;;;;41.92;25.35;;;;;;;5.12;64.28;100338.84;5116410;28;20092;-73
2022/03/04 10:00:04;;;;;;;48.85;25.48;;;;;;;5.48;62.80;100333.09;5116533;28;20059;-72
2022/03/04 10:02:35;;;;;;;44.75;26.23;;;;;;;5.68;62.23;100333.19;5116307;28;20472;-73
2022/03/04 10:05:06;;;;;;;47.08;23.67;;;;;;;5.62;61.41;100330.81;5098205;28;20549;-72
2022/03/04 10:07:41;;;;;;;42.25;23.35;;;;;;;5.39;61.87;100328.16;5116330;28;20044;-72
2022/03/04 10:10:15;;;;;;;43.70;23.95;;;;;;;5.43;61.81;100324.50;5116186;28;20048;-72
2022/03/04 10:12:51;;;;;;;41.83;24.58;;;;;;;5.51;62.32;100327.72;5116087;28;20050;-72
2022/03/04 10:15:20;;;;;;;44.10;25.35;;;;;;;5.45;61.37;100330.59;5114878;28;20044;-78
2022/03/04 10:18:00;;;;;;;46.55;24.90;;;;;;;5.33;62.53;100334.56;5116239;28;20545;-72
2022/03/04 10:20:35;;;;;;;42.08;24.60;;;;;;;5.25;62.71;100331.31;5116072;28;20104;-72
2022/03/04 10:23:18;;;;;;;41.25;23.27;;;;;;;5.35;61.98;100329.19;5116202;28;20048;-72
2022/03/04 10:25:48;;;;;;;44.05;24.65;;;;;;;5.31;62.62;100331.13;5116065;28;20042;-72
2022/03/04 10:28:20;;;;;;;;;;;;;;;5.32;62.08;100334.63;5116417;28;20499;-78
2022/03/04 10:30:50;;;;;;;40.20;22.02;;;;;;;5.40;61.57;100336.06;5116056;28;20403;-72
2022/03/04 10:33:20;;;;;;;42.97;23.35;;;;;;;5.40;60.96;100325.47;5116101;28;20093;-72
2022/03/04 10:36:08;;;;;;;38.22;23.33;;;;;;;5.50;61.25;100328.63;5116472;28;20051;-72
2022/03/04 10:38:37;;;;;;;41.13;22.08;;;;;;;5.47;61.51;100323.44;5115552;28;20043;-72
2022/03/04 10:41:22;;;;;;;40.35;22.48;;;;;;;5.74;60.28;100327.69;5115457;28;20039;-72
2022/03/04 10:43:51;;;;;;;40.63;23.23;;;;;;;5.69;59.69;100318.19;5115879;28;20048;-72
2022/03/04 10:46:20;;;;;;;35.92;20.58;;;;;;;5.97;58.78;100316.19;5115600;28;20036;-72
2022/03/04 10:48:54;;;;;;;41.60;22.75;;;;;;;6.04;59.02;100314.19;5115590;28;20115;-72
2022/03/04 10:51:38;;;;;;;42.15;22.95;;;;;;;5.89;60.25;100333.31;5115516;28;20035;-73
2022/03/04 10:54:14;;;;;;;40.38;23.17;;;;;;;5.99;60.55;100322.31;5115673;28;20039;-72
2022/03/04 10:56:51;;;;;;;39.08;22.52;;;;;;;5.90;60.90;100317.38;5114969;28;20046;-72
2022/03/04 10:59:20;;;;;;;40.85;23.90;;;;;;;5.81;60.47;100317.72;5115481;28;20039;-72
2022/03/04 11:01:49;;;;;;;44.80;23.27;;;;;;;5.86;60.86;100317.53;5115693;28;20434;-71
2022/03/04 11:04:19;;;;;;;37.40;22.05;;;;;;;5.86;59.81;100318.38;5115265;28;20040;-72
2022/03/04 11:06:50;;;;;;;41.22;23.20;;;;;;;5.87;59.01;100312.16;5115062;28;20408;-72
2022/03/04 11:09:24;;;;;;;42.47;23.67;;;;;;;5.27;60.46;100320.69;5115188;28;20114;-72
2022/03/04 11:11:54;;;;;;;40.53;22.13;;;;;;;5.10;60.32;100318.66;5114947;28;20117;-72
2022/03/04 11:14:22;;;;;;;40.13;22.58;;;;;;;5.02;61.72;100326.00;5115253;28;20133;-72
2022/03/04 11:16:51;;;;;;;40.25;22.45;;;;;;;5.23;60.98;100313.81;5115064;28;20040;-72
2022/03/04 11:19:20;;;;;;;44.58;24.23;;;;;;;5.40;60.03;100319.28;5114725;28;20083;-72
2022/03/04 11:21:52;;;;;;;43.65;23.48;;;;;;;5.17;60.54;100321.03;5096004;28;20081;-72
2022/03/04 11:24:29;;;;;;;44.07;24.23;;;;;;;5.41;59.70;100319.25;5115109;28;20047;-72
2022/03/04 11:27:05;;;;;;;39.40;21.73;;;;;;;5.45;59.72;100320.00;5114487;28;20084;-71